EGHQ

Newquay Cornwall Airport

Newquay, United Kingdom
METAR EGHQ 152020Z 26007KT 9999 FEW045 18/15 Q1016
Observed Flight Rules
Jul-15 @ 20:20 UTC (51 minutes ago) Visual Flight Rules
Wind Visibility Clouds
260° at 7 knots 10,000+ meters
  • Few at 4,500' AGL
Temperatures Readings
Current 18°C / 64°F
Dewpoint 15°C / 59°F
Humidity 83%
Altimeter 30" Hg
Pressure 1016 hPa
Elevation 119
METAR EGHQ 152020Z 26007KT 9999 FEW045 18/15 Q1016
Observed Flight Rules
Jul-15 @ 20:20 UTC
(51 minutes ago)
VFR
Wind Visibility
260° at 7 knots 10,000+ meters
Clouds
  • Few at 4,500' AGL
Temperature Dewpoint
18°C / 64°F 15°C / 59°F
Humidity Altimeter Pressure
83% 30" Hg 1016 hPa